createdAt,value
2022-11-10T00:19:04.115Z,15
2022-11-10T00:48:14.628Z,13
2022-11-10T01:17:24.742Z,11
2022-11-10T01:46:39.825Z,9
2022-11-10T02:15:43.401Z,15
2022-11-10T02:45:00.086Z,14
2022-11-10T03:14:08.375Z,14
2022-11-10T03:43:01.072Z,14
2022-11-10T04:12:05.203Z,11
2022-11-10T04:41:00.115Z,14
2022-11-10T05:09:48.017Z,22
2022-11-10T05:38:54.878Z,25
2022-11-10T06:08:02.864Z,21
2022-11-10T06:37:07.143Z,14
2022-11-10T07:06:19.962Z,28
2022-11-10T07:35:31.688Z,33
2022-11-10T08:04:36.334Z,31
2022-11-10T08:33:31.953Z,29
2022-11-10T09:02:37.797Z,32
2022-11-10T09:31:50.987Z,32
2022-11-10T10:01:01.085Z,33
2022-11-10T10:30:09.823Z,28
2022-11-10T10:59:27.462Z,24
2022-11-10T11:28:42.102Z,21
2022-11-10T11:57:41.711Z,11
2022-11-10T12:26:16.467Z,12
2022-11-10T12:55:20.524Z,8
2022-11-10T13:24:32.291Z,10
2022-11-10T13:53:40.187Z,8
2022-11-10T14:22:41.715Z,14
2022-11-10T14:51:46.183Z,14
2022-11-10T15:20:57.716Z,24
2022-11-10T15:49:49.546Z,22
2022-11-10T16:18:45.583Z,26
2022-11-10T16:47:44.599Z,35
2022-11-10T17:16:52.255Z,32
2022-11-10T17:46:00.221Z,32
2022-11-10T18:15:09.766Z,37
2022-11-10T18:44:06.507Z,29
2022-11-10T19:13:17.558Z,25
2022-11-10T19:42:28.033Z,21
2022-11-10T20:11:42.530Z,20
2022-11-10T20:40:56.563Z,15
2022-11-10T21:10:08.328Z,33
2022-11-10T21:39:23.748Z,31
2022-11-10T22:08:40.397Z,27
2022-11-10T22:37:47.490Z,28
2022-11-10T23:07:04.626Z,21
2022-11-10T23:36:13.060Z,21
